Аэропорт: Игнатьево. Благовещенск

ICAO: UHBB

METAR:
2019-07-23 18:00:00
UHBB 231800Z 06002MPS 9999 BKN033CB 16/15 Q1001 R36/090060 NOSIG RMK QFE733/0978
METAR:
2019-07-23 17:00:00
TAF UHBB 231700Z 2318/2418 36003MPS 9999 BKN011 BKN020CB TEMPO 2318/2324 0400 +SHRA FG VV003 FM240000 02003MPS 3100 -SHRA BR BKN006 BKN011CB TEMPO 2400/2418 1100 TSRA BR BKN003 BKN011CB BECMG 2403/2405 07003MPS